sensor_id;sensor_type;location;lat;lon;timestamp;P1;durP1;ratioP1;P2;durP2;ratioP2
29422;SDS011;16399;51.686;8.684;2023-07-29T00:02:34;2.33;;;1.10;;
29422;SDS011;16399;51.686;8.684;2023-07-29T00:05:37;2.22;;;1.10;;
29422;SDS011;16399;51.686;8.684;2023-07-29T00:08:39;1.85;;;1.20;;
29422;SDS011;16399;51.686;8.684;2023-07-29T00:11:41;2.83;;;1.20;;
29422;SDS011;16399;51.686;8.684;2023-07-29T00:14:44;2.70;;;1.20;;
29422;SDS011;16399;51.686;8.684;2023-07-29T00:17:46;3.37;;;1.10;;
29422;SDS011;16399;51.686;8.684;2023-07-29T00:20:48;1.92;;;1.30;;
29422;SDS011;16399;51.686;8.684;2023-07-29T00:23:50;5.50;;;1.22;;
29422;SDS011;16399;51.686;8.684;2023-07-29T00:26:53;1.92;;;1.17;;
29422;SDS011;16399;51.686;8.684;2023-07-29T00:29:55;3.60;;;1.30;;
29422;SDS011;16399;51.686;8.684;2023-07-29T00:32:57;2.58;;;1.15;;
29422;SDS011;16399;51.686;8.684;2023-07-29T00:36:00;2.50;;;1.00;;
29422;SDS011;16399;51.686;8.684;2023-07-29T00:39:03;2.83;;;1.10;;
29422;SDS011;16399;51.686;8.684;2023-07-29T00:42:05;1.70;;;1.00;;
29422;SDS011;16399;51.686;8.684;2023-07-29T00:45:08;2.60;;;1.00;;
29422;SDS011;16399;51.686;8.684;2023-07-29T00:48:11;3.90;;;1.22;;
29422;SDS011;16399;51.686;8.684;2023-07-29T00:51:13;2.55;;;1.20;;
29422;SDS011;16399;51.686;8.684;2023-07-29T00:54:15;3.47;;;1.07;;
29422;SDS011;16399;51.686;8.684;2023-07-29T00:57:18;2.58;;;1.00;;
29422;SDS011;16399;51.686;8.684;2023-07-29T01:00:21;1.92;;;1.00;;
29422;SDS011;16399;51.686;8.684;2023-07-29T01:03:25;3.00;;;1.50;;
29422;SDS011;16399;51.686;8.684;2023-07-29T01:06:29;3.95;;;1.10;;
29422;SDS011;16399;51.686;8.684;2023-07-29T01:09:51;1.93;;;1.07;;
29422;SDS011;16399;51.686;8.684;2023-07-29T01:16:02;2.02;;;1.12;;
29422;SDS011;16399;51.686;8.684;2023-07-29T01:22:51;2.17;;;1.00;;
29422;SDS011;16399;51.686;8.684;2023-07-29T01:25:53;1.20;;;0.90;;
29422;SDS011;16399;51.686;8.684;2023-07-29T01:28:59;1.55;;;0.90;;
29422;SDS011;16399;51.686;8.684;2023-07-29T01:32:04;1.95;;;0.90;;
29422;SDS011;16399;51.686;8.684;2023-07-29T01:35:11;1.52;;;1.00;;
29422;SDS011;16399;51.686;8.684;2023-07-29T01:38:18;3.10;;;0.95;;
29422;SDS011;16399;51.686;8.684;2023-07-29T01:41:22;2.30;;;1.00;;
29422;SDS011;16399;51.686;8.684;2023-07-29T01:44:25;2.00;;;1.20;;
29422;SDS011;16399;51.686;8.684;2023-07-29T01:47:28;4.78;;;0.95;;
29422;SDS011;16399;51.686;8.684;2023-07-29T01:50:30;3.08;;;1.20;;
29422;SDS011;16399;51.686;8.684;2023-07-29T01:53:33;1.30;;;0.85;;
29422;SDS011;16399;51.686;8.684;2023-07-29T01:56:35;1.02;;;0.70;;
29422;SDS011;16399;51.686;8.684;2023-07-29T01:59:37;1.30;;;0.90;;
29422;SDS011;16399;51.686;8.684;2023-07-29T02:02:41;2.62;;;1.12;;
29422;SDS011;16399;51.686;8.684;2023-07-29T02:05:43;2.42;;;0.93;;
29422;SDS011;16399;51.686;8.684;2023-07-29T02:08:45;2.10;;;1.00;;
29422;SDS011;16399;51.686;8.684;2023-07-29T02:11:47;1.98;;;0.90;;
29422;SDS011;16399;51.686;8.684;2023-07-29T02:14:50;3.22;;;1.10;;
29422;SDS011;16399;51.686;8.684;2023-07-29T02:17:52;2.30;;;1.07;;
29422;SDS011;16399;51.686;8.684;2023-07-29T02:20:54;2.00;;;1.00;;
29422;SDS011;16399;51.686;8.684;2023-07-29T02:23:57;2.22;;;1.10;;
29422;SDS011;16399;51.686;8.684;2023-07-29T02:26:59;1.52;;;0.82;;
29422;SDS011;16399;51.686;8.684;2023-07-29T02:30:02;1.98;;;1.00;;
29422;SDS011;16399;51.686;8.684;2023-07-29T02:33:04;1.80;;;1.00;;
29422;SDS011;16399;51.686;8.684;2023-07-29T02:36:07;1.77;;;1.10;;
29422;SDS011;16399;51.686;8.684;2023-07-29T02:39:09;4.40;;;1.00;;
29422;SDS011;16399;51.686;8.684;2023-07-29T02:42:11;3.47;;;1.10;;
29422;SDS011;16399;51.686;8.684;2023-07-29T02:45:14;1.77;;;1.10;;
29422;SDS011;16399;51.686;8.684;2023-07-29T02:48:16;3.60;;;0.80;;
29422;SDS011;16399;51.686;8.684;2023-07-29T02:51:18;3.20;;;1.10;;
29422;SDS011;16399;51.686;8.684;2023-07-29T02:54:21;2.27;;;1.00;;
29422;SDS011;16399;51.686;8.684;2023-07-29T02:57:23;2.47;;;1.07;;
29422;SDS011;16399;51.686;8.684;2023-07-29T03:00:25;2.75;;;1.00;;
29422;SDS011;16399;51.686;8.684;2023-07-29T03:03:28;2.90;;;1.10;;
29422;SDS011;16399;51.686;8.684;2023-07-29T03:06:30;3.17;;;1.20;;
29422;SDS011;16399;51.686;8.684;2023-07-29T03:09:32;2.00;;;1.00;;
29422;SDS011;16399;51.686;8.684;2023-07-29T03:12:35;1.42;;;0.88;;
29422;SDS011;16399;51.686;8.684;2023-07-29T03:15:37;1.85;;;0.90;;
29422;SDS011;16399;51.686;8.684;2023-07-29T03:18:39;4.37;;;1.15;;
29422;SDS011;16399;51.686;8.684;2023-07-29T03:21:43;2.00;;;1.00;;
29422;SDS011;16399;51.686;8.684;2023-07-29T03:24:46;3.80;;;1.10;;
29422;SDS011;16399;51.686;8.684;2023-07-29T03:27:48;1.30;;;0.90;;
29422;SDS011;16399;51.686;8.684;2023-07-29T03:30:51;2.40;;;1.10;;
29422;SDS011;16399;51.686;8.684;2023-07-29T03:33:53;3.60;;;1.72;;
29422;SDS011;16399;51.686;8.684;2023-07-29T03:36:55;3.33;;;1.25;;
29422;SDS011;16399;51.686;8.684;2023-07-29T03:39:58;2.27;;;1.10;;
29422;SDS011;16399;51.686;8.684;2023-07-29T03:43:00;2.55;;;1.40;;
29422;SDS011;16399;51.686;8.684;2023-07-29T03:46:02;2.70;;;1.17;;
29422;SDS011;16399;51.686;8.684;2023-07-29T03:49:05;3.87;;;1.40;;
29422;SDS011;16399;51.686;8.684;2023-07-29T03:52:08;5.58;;;1.60;;
29422;SDS011;16399;51.686;8.684;2023-07-29T03:55:10;2.77;;;1.40;;
29422;SDS011;16399;51.686;8.684;2023-07-29T03:58:13;3.45;;;1.27;;
29422;SDS011;16399;51.686;8.684;2023-07-29T04:01:15;6.00;;;1.62;;
29422;SDS011;16399;51.686;8.684;2023-07-29T04:04:18;4.50;;;1.27;;
29422;SDS011;16399;51.686;8.684;2023-07-29T04:07:20;7.53;;;1.70;;
29422;SDS011;16399;51.686;8.684;2023-07-29T04:10:22;3.80;;;1.47;;
29422;SDS011;16399;51.686;8.684;2023-07-29T04:13:24;2.47;;;1.40;;
29422;SDS011;16399;51.686;8.684;2023-07-29T04:16:27;4.62;;;1.60;;
29422;SDS011;16399;51.686;8.684;2023-07-29T04:19:29;4.97;;;1.17;;
29422;SDS011;16399;51.686;8.684;2023-07-29T04:22:31;3.08;;;1.50;;
29422;SDS011;16399;51.686;8.684;2023-07-29T04:25:34;3.08;;;1.60;;
29422;SDS011;16399;51.686;8.684;2023-07-29T04:28:36;2.95;;;1.42;;
29422;SDS011;16399;51.686;8.684;2023-07-29T04:31:38;3.80;;;1.42;;
29422;SDS011;16399;51.686;8.684;2023-07-29T04:34:41;2.87;;;1.30;;
29422;SDS011;16399;51.686;8.684;2023-07-29T04:37:43;3.20;;;1.27;;
29422;SDS011;16399;51.686;8.684;2023-07-29T04:40:52;4.08;;;1.55;;
29422;SDS011;16399;51.686;8.684;2023-07-29T04:43:51;4.37;;;1.50;;
29422;SDS011;16399;51.686;8.684;2023-07-29T04:46:54;3.90;;;1.60;;
29422;SDS011;16399;51.686;8.684;2023-07-29T04:49:56;3.05;;;1.50;;
29422;SDS011;16399;51.686;8.684;2023-07-29T04:52:58;4.47;;;1.62;;
29422;SDS011;16399;51.686;8.684;2023-07-29T04:56:00;3.22;;;1.22;;
29422;SDS011;16399;51.686;8.684;2023-07-29T04:59:03;3.80;;;1.40;;
29422;SDS011;16399;51.686;8.684;2023-07-29T05:02:07;2.42;;;1.42;;
29422;SDS011;16399;51.686;8.684;2023-07-29T05:05:10;4.58;;;1.82;;
29422;SDS011;16399;51.686;8.684;2023-07-29T05:08:12;3.50;;;1.20;;
29422;SDS011;16399;51.686;8.684;2023-07-29T05:11:14;2.92;;;1.20;;
29422;SDS011;16399;51.686;8.684;2023-07-29T05:14:17;2.50;;;1.20;;
29422;SDS011;16399;51.686;8.684;2023-07-29T05:17:21;5.80;;;1.50;;
29422;SDS011;16399;51.686;8.684;2023-07-29T05:20:23;3.83;;;1.50;;
29422;SDS011;16399;51.686;8.684;2023-07-29T05:23:25;5.37;;;1.70;;
29422;SDS011;16399;51.686;8.684;2023-07-29T05:26:28;4.42;;;1.30;;
29422;SDS011;16399;51.686;8.684;2023-07-29T05:29:30;4.62;;;1.60;;
29422;SDS011;16399;51.686;8.684;2023-07-29T05:32:32;3.27;;;1.50;;
29422;SDS011;16399;51.686;8.684;2023-07-29T05:35:35;2.77;;;1.20;;
29422;SDS011;16399;51.686;8.684;2023-07-29T05:38:37;2.75;;;1.30;;
29422;SDS011;16399;51.686;8.684;2023-07-29T05:41:39;3.02;;;1.47;;
29422;SDS011;16399;51.686;8.684;2023-07-29T05:44:41;3.83;;;1.20;;
29422;SDS011;16399;51.686;8.684;2023-07-29T05:47:44;2.42;;;1.15;;
29422;SDS011;16399;51.686;8.684;2023-07-29T05:50:46;4.55;;;1.10;;
29422;SDS011;16399;51.686;8.684;2023-07-29T05:53:49;2.50;;;1.30;;
29422;SDS011;16399;51.686;8.684;2023-07-29T05:56:51;6.37;;;1.20;;
29422;SDS011;16399;51.686;8.684;2023-07-29T05:59:54;2.72;;;1.20;;
29422;SDS011;16399;51.686;8.684;2023-07-29T06:02:56;2.10;;;1.00;;
29422;SDS011;16399;51.686;8.684;2023-07-29T06:05:59;2.35;;;1.15;;
29422;SDS011;16399;51.686;8.684;2023-07-29T06:09:01;3.60;;;1.00;;
29422;SDS011;16399;51.686;8.684;2023-07-29T06:12:03;2.45;;;1.22;;
29422;SDS011;16399;51.686;8.684;2023-07-29T06:15:06;2.08;;;1.20;;
29422;SDS011;16399;51.686;8.684;2023-07-29T06:18:09;3.10;;;1.20;;
29422;SDS011;16399;51.686;8.684;2023-07-29T06:21:11;3.50;;;1.32;;
29422;SDS011;16399;51.686;8.684;2023-07-29T06:24:15;2.40;;;1.20;;
29422;SDS011;16399;51.686;8.684;2023-07-29T06:27:18;1.85;;;1.10;;
29422;SDS011;16399;51.686;8.684;2023-07-29T06:30:20;4.58;;;1.10;;
29422;SDS011;16399;51.686;8.684;2023-07-29T06:33:22;2.47;;;1.25;;
29422;SDS011;16399;51.686;8.684;2023-07-29T06:36:24;2.17;;;1.22;;
29422;SDS011;16399;51.686;8.684;2023-07-29T06:39:27;2.60;;;1.20;;
29422;SDS011;16399;51.686;8.684;2023-07-29T06:42:29;2.42;;;1.40;;
29422;SDS011;16399;51.686;8.684;2023-07-29T06:45:31;2.25;;;1.22;;
29422;SDS011;16399;51.686;8.684;2023-07-29T06:48:34;2.55;;;1.20;;
29422;SDS011;16399;51.686;8.684;2023-07-29T06:51:36;2.45;;;1.37;;
29422;SDS011;16399;51.686;8.684;2023-07-29T06:54:38;2.33;;;1.37;;
29422;SDS011;16399;51.686;8.684;2023-07-29T06:57:40;2.27;;;1.30;;
29422;SDS011;16399;51.686;8.684;2023-07-29T07:00:43;4.85;;;1.32;;
29422;SDS011;16399;51.686;8.684;2023-07-29T07:03:45;2.40;;;1.32;;
29422;SDS011;16399;51.686;8.684;2023-07-29T07:06:47;3.20;;;1.50;;
29422;SDS011;16399;51.686;8.684;2023-07-29T07:09:50;5.97;;;1.62;;
29422;SDS011;16399;51.686;8.684;2023-07-29T07:12:52;2.77;;;1.72;;
29422;SDS011;16399;51.686;8.684;2023-07-29T07:15:54;2.70;;;1.67;;
29422;SDS011;16399;51.686;8.684;2023-07-29T07:18:57;3.90;;;1.98;;
29422;SDS011;16399;51.686;8.684;2023-07-29T07:21:59;2.95;;;1.82;;
29422;SDS011;16399;51.686;8.684;2023-07-29T07:25:02;7.15;;;2.70;;
29422;SDS011;16399;51.686;8.684;2023-07-29T07:28:04;4.00;;;2.52;;
29422;SDS011;16399;51.686;8.684;2023-07-29T07:31:07;6.65;;;3.62;;
29422;SDS011;16399;51.686;8.684;2023-07-29T07:34:09;11.18;;;4.70;;
29422;SDS011;16399;51.686;8.684;2023-07-29T07:37:11;6.45;;;4.47;;
29422;SDS011;16399;51.686;8.684;2023-07-29T07:40:13;9.80;;;5.17;;
29422;SDS011;16399;51.686;8.684;2023-07-29T07:43:16;7.78;;;5.30;;
29422;SDS011;16399;51.686;8.684;2023-07-29T07:46:18;8.00;;;6.00;;
29422;SDS011;16399;51.686;8.684;2023-07-29T07:49:21;8.70;;;6.58;;
29422;SDS011;16399;51.686;8.684;2023-07-29T07:52:24;11.12;;;6.62;;
29422;SDS011;16399;51.686;8.684;2023-07-29T07:55:26;10.18;;;6.80;;
29422;SDS011;16399;51.686;8.684;2023-07-29T07:58:28;10.63;;;7.70;;
29422;SDS011;16399;51.686;8.684;2023-07-29T08:01:37;8.88;;;6.50;;
29422;SDS011;16399;51.686;8.684;2023-07-29T08:04:40;8.95;;;7.22;;
29422;SDS011;16399;51.686;8.684;2023-07-29T08:07:43;13.08;;;7.55;;
29422;SDS011;16399;51.686;8.684;2023-07-29T08:10:45;10.95;;;7.78;;
29422;SDS011;16399;51.686;8.684;2023-07-29T08:13:47;8.65;;;6.22;;
29422;SDS011;16399;51.686;8.684;2023-07-29T08:16:50;8.88;;;5.25;;
29422;SDS011;16399;51.686;8.684;2023-07-29T08:19:52;7.90;;;5.62;;
29422;SDS011;16399;51.686;8.684;2023-07-29T08:22:54;7.37;;;5.95;;
29422;SDS011;16399;51.686;8.684;2023-07-29T08:25:57;6.80;;;5.20;;
29422;SDS011;16399;51.686;8.684;2023-07-29T08:29:04;7.28;;;5.58;;
29422;SDS011;16399;51.686;8.684;2023-07-29T08:32:06;9.30;;;5.40;;
29422;SDS011;16399;51.686;8.684;2023-07-29T08:35:09;7.95;;;5.90;;
29422;SDS011;16399;51.686;8.684;2023-07-29T08:38:11;9.40;;;6.42;;
29422;SDS011;16399;51.686;8.684;2023-07-29T08:41:14;9.83;;;6.17;;
29422;SDS011;16399;51.686;8.684;2023-07-29T08:44:26;8.43;;;6.15;;
29422;SDS011;16399;51.686;8.684;2023-07-29T08:47:30;8.53;;;5.83;;
29422;SDS011;16399;51.686;8.684;2023-07-29T08:50:32;8.18;;;6.10;;
29422;SDS011;16399;51.686;8.684;2023-07-29T08:53:37;9.13;;;6.78;;
29422;SDS011;16399;51.686;8.684;2023-07-29T08:56:43;8.10;;;6.45;;
29422;SDS011;16399;51.686;8.684;2023-07-29T08:59:46;8.28;;;6.62;;
29422;SDS011;16399;51.686;8.684;2023-07-29T09:02:48;9.38;;;6.60;;
29422;SDS011;16399;51.686;8.684;2023-07-29T09:05:50;8.45;;;5.97;;
29422;SDS011;16399;51.686;8.684;2023-07-29T09:08:54;7.25;;;5.90;;
29422;SDS011;16399;51.686;8.684;2023-07-29T09:11:59;8.00;;;5.20;;
29422;SDS011;16399;51.686;8.684;2023-07-29T09:15:01;7.25;;;5.50;;
29422;SDS011;16399;51.686;8.684;2023-07-29T09:18:19;6.97;;;4.08;;
29422;SDS011;16399;51.686;8.684;2023-07-29T09:21:24;7.53;;;3.52;;
29422;SDS011;16399;51.686;8.684;2023-07-29T09:24:28;5.67;;;2.90;;
29422;SDS011;16399;51.686;8.684;2023-07-29T09:27:32;4.45;;;2.37;;
29422;SDS011;16399;51.686;8.684;2023-07-29T09:30:37;4.03;;;2.20;;
29422;SDS011;16399;51.686;8.684;2023-07-29T09:33:40;5.53;;;2.35;;
29422;SDS011;16399;51.686;8.684;2023-07-29T09:36:44;4.95;;;2.55;;
29422;SDS011;16399;51.686;8.684;2023-07-29T09:39:46;5.12;;;2.33;;
29422;SDS011;16399;51.686;8.684;2023-07-29T09:42:53;3.60;;;1.85;;
29422;SDS011;16399;51.686;8.684;2023-07-29T09:46:03;5.58;;;2.17;;
29422;SDS011;16399;51.686;8.684;2023-07-29T09:49:09;6.03;;;2.22;;
29422;SDS011;16399;51.686;8.684;2023-07-29T09:52:12;3.85;;;1.77;;
29422;SDS011;16399;51.686;8.684;2023-07-29T09:55:18;3.83;;;1.77;;
29422;SDS011;16399;51.686;8.684;2023-07-29T09:58:26;3.42;;;1.70;;
29422;SDS011;16399;51.686;8.684;2023-07-29T10:01:29;2.85;;;1.70;;
29422;SDS011;16399;51.686;8.684;2023-07-29T10:04:31;3.87;;;1.70;;
29422;SDS011;16399;51.686;8.684;2023-07-29T10:07:38;2.75;;;1.32;;
29422;SDS011;16399;51.686;8.684;2023-07-29T10:10:41;3.30;;;1.20;;
29422;SDS011;16399;51.686;8.684;2023-07-29T10:13:44;1.72;;;0.95;;
29422;SDS011;16399;51.686;8.684;2023-07-29T10:16:49;1.87;;;1.00;;
29422;SDS011;16399;51.686;8.684;2023-07-29T10:19:53;2.10;;;1.07;;
29422;SDS011;16399;51.686;8.684;2023-07-29T10:23:01;2.12;;;1.05;;
29422;SDS011;16399;51.686;8.684;2023-07-29T10:26:07;2.58;;;1.15;;
29422;SDS011;16399;51.686;8.684;2023-07-29T10:29:12;2.50;;;0.90;;
29422;SDS011;16399;51.686;8.684;2023-07-29T10:32:15;2.25;;;1.00;;
29422;SDS011;16399;51.686;8.684;2023-07-29T10:35:18;2.30;;;0.80;;
29422;SDS011;16399;51.686;8.684;2023-07-29T10:38:21;2.40;;;0.93;;
29422;SDS011;16399;51.686;8.684;2023-07-29T10:41:42;6.42;;;2.45;;
29422;SDS011;16399;51.686;8.684;2023-07-29T10:44:47;3.80;;;0.88;;
29422;SDS011;16399;51.686;8.684;2023-07-29T10:47:50;1.70;;;0.70;;
29422;SDS011;16399;51.686;8.684;2023-07-29T10:51:16;6.78;;;1.27;;
29422;SDS011;16399;51.686;8.684;2023-07-29T10:53:58;2.00;;;0.80;;
29422;SDS011;16399;51.686;8.684;2023-07-29T10:57:05;1.47;;;0.80;;
29422;SDS011;16399;51.686;8.684;2023-07-29T11:00:07;1.57;;;0.88;;
29422;SDS011;16399;51.686;8.684;2023-07-29T11:03:11;2.58;;;1.00;;
29422;SDS011;16399;51.686;8.684;2023-07-29T11:06:17;1.35;;;0.85;;
29422;SDS011;16399;51.686;8.684;2023-07-29T11:09:41;1.87;;;0.80;;
29422;SDS011;16399;51.686;8.684;2023-07-29T11:12:43;1.67;;;0.88;;
29422;SDS011;16399;51.686;8.684;2023-07-29T11:15:51;2.00;;;1.10;;
29422;SDS011;16399;51.686;8.684;2023-07-29T11:18:56;1.37;;;0.78;;
29422;SDS011;16399;51.686;8.684;2023-07-29T11:22:00;1.60;;;0.90;;
29422;SDS011;16399;51.686;8.684;2023-07-29T11:25:03;1.77;;;0.88;;
29422;SDS011;16399;51.686;8.684;2023-07-29T11:28:07;2.33;;;0.98;;
29422;SDS011;16399;51.686;8.684;2023-07-29T11:31:10;1.45;;;0.80;;
29422;SDS011;16399;51.686;8.684;2023-07-29T11:34:12;2.25;;;1.02;;
29422;SDS011;16399;51.686;8.684;2023-07-29T11:37:16;2.87;;;1.02;;
29422;SDS011;16399;51.686;8.684;2023-07-29T11:40:19;3.52;;;0.90;;
29422;SDS011;16399;51.686;8.684;2023-07-29T11:43:22;2.22;;;0.90;;
29422;SDS011;16399;51.686;8.684;2023-07-29T11:46:24;2.17;;;0.90;;
29422;SDS011;16399;51.686;8.684;2023-07-29T11:49:27;3.80;;;1.00;;
29422;SDS011;16399;51.686;8.684;2023-07-29T11:52:29;2.33;;;0.90;;
29422;SDS011;16399;51.686;8.684;2023-07-29T11:55:37;1.42;;;0.85;;
29422;SDS011;16399;51.686;8.684;2023-07-29T11:58:39;1.77;;;0.90;;
29422;SDS011;16399;51.686;8.684;2023-07-29T12:01:41;1.52;;;0.90;;
29422;SDS011;16399;51.686;8.684;2023-07-29T12:04:44;3.08;;;0.90;;
29422;SDS011;16399;51.686;8.684;2023-07-29T12:07:48;2.77;;;0.90;;
29422;SDS011;16399;51.686;8.684;2023-07-29T12:10:51;2.00;;;0.70;;
29422;SDS011;16399;51.686;8.684;2023-07-29T12:13:53;3.35;;;1.10;;
29422;SDS011;16399;51.686;8.684;2023-07-29T12:16:56;2.58;;;1.12;;
29422;SDS011;16399;51.686;8.684;2023-07-29T12:20:07;1.92;;;1.00;;
29422;SDS011;16399;51.686;8.684;2023-07-29T12:23:10;2.22;;;1.12;;
29422;SDS011;16399;51.686;8.684;2023-07-29T12:26:12;2.37;;;1.37;;
29422;SDS011;16399;51.686;8.684;2023-07-29T12:29:15;2.77;;;1.20;;
29422;SDS011;16399;51.686;8.684;2023-07-29T12:32:20;1.92;;;1.10;;
29422;SDS011;16399;51.686;8.684;2023-07-29T12:35:24;2.27;;;1.07;;
29422;SDS011;16399;51.686;8.684;2023-07-29T12:38:31;3.25;;;1.10;;
29422;SDS011;16399;51.686;8.684;2023-07-29T12:41:33;1.85;;;1.10;;
29422;SDS011;16399;51.686;8.684;2023-07-29T12:44:37;2.75;;;1.12;;
29422;SDS011;16399;51.686;8.684;2023-07-29T12:47:39;1.72;;;1.00;;
29422;SDS011;16399;51.686;8.684;2023-07-29T12:50:42;2.02;;;1.00;;
29422;SDS011;16399;51.686;8.684;2023-07-29T12:53:44;1.95;;;0.90;;
29422;SDS011;16399;51.686;8.684;2023-07-29T12:56:46;1.27;;;0.80;;
29422;SDS011;16399;51.686;8.684;2023-07-29T12:59:49;2.02;;;1.00;;
29422;SDS011;16399;51.686;8.684;2023-07-29T13:02:51;3.15;;;1.20;;
29422;SDS011;16399;51.686;8.684;2023-07-29T13:05:53;5.22;;;1.55;;
29422;SDS011;16399;51.686;8.684;2023-07-29T13:08:56;2.90;;;0.90;;
29422;SDS011;16399;51.686;8.684;2023-07-29T13:11:58;2.30;;;1.00;;
29422;SDS011;16399;51.686;8.684;2023-07-29T13:15:00;2.00;;;1.10;;
29422;SDS011;16399;51.686;8.684;2023-07-29T13:18:03;5.95;;;1.45;;
29422;SDS011;16399;51.686;8.684;2023-07-29T13:21:05;2.98;;;1.60;;
29422;SDS011;16399;51.686;8.684;2023-07-29T13:24:08;2.37;;;1.45;;
29422;SDS011;16399;51.686;8.684;2023-07-29T13:27:10;2.60;;;1.60;;
29422;SDS011;16399;51.686;8.684;2023-07-29T13:30:12;3.22;;;1.45;;
29422;SDS011;16399;51.686;8.684;2023-07-29T13:33:15;2.70;;;1.40;;
29422;SDS011;16399;51.686;8.684;2023-07-29T13:36:17;2.62;;;1.30;;
29422;SDS011;16399;51.686;8.684;2023-07-29T13:39:19;3.92;;;1.40;;
29422;SDS011;16399;51.686;8.684;2023-07-29T13:42:22;2.65;;;1.10;;
29422;SDS011;16399;51.686;8.684;2023-07-29T13:45:24;2.37;;;1.50;;
29422;SDS011;16399;51.686;8.684;2023-07-29T13:48:26;2.47;;;1.40;;
29422;SDS011;16399;51.686;8.684;2023-07-29T13:51:29;2.50;;;1.30;;
29422;SDS011;16399;51.686;8.684;2023-07-29T13:54:31;4.60;;;1.15;;
29422;SDS011;16399;51.686;8.684;2023-07-29T13:57:33;2.65;;;1.30;;
29422;SDS011;16399;51.686;8.684;2023-07-29T14:00:35;2.40;;;1.22;;
29422;SDS011;16399;51.686;8.684;2023-07-29T14:03:38;2.77;;;1.52;;
29422;SDS011;16399;51.686;8.684;2023-07-29T14:06:40;2.80;;;1.35;;
29422;SDS011;16399;51.686;8.684;2023-07-29T14:09:42;2.60;;;1.40;;
29422;SDS011;16399;51.686;8.684;2023-07-29T14:12:45;2.90;;;1.20;;
29422;SDS011;16399;51.686;8.684;2023-07-29T14:15:47;2.27;;;1.20;;
29422;SDS011;16399;51.686;8.684;2023-07-29T14:18:49;4.33;;;1.50;;
29422;SDS011;16399;51.686;8.684;2023-07-29T14:21:52;3.37;;;1.20;;
29422;SDS011;16399;51.686;8.684;2023-07-29T14:24:54;2.08;;;1.15;;
29422;SDS011;16399;51.686;8.684;2023-07-29T14:27:56;3.00;;;1.40;;
29422;SDS011;16399;51.686;8.684;2023-07-29T14:30:58;4.72;;;1.45;;
29422;SDS011;16399;51.686;8.684;2023-07-29T14:34:01;3.50;;;1.40;;
29422;SDS011;16399;51.686;8.684;2023-07-29T14:37:03;2.33;;;1.27;;
29422;SDS011;16399;51.686;8.684;2023-07-29T14:40:06;4.33;;;1.42;;
29422;SDS011;16399;51.686;8.684;2023-07-29T14:43:09;5.17;;;1.10;;
29422;SDS011;16399;51.686;8.684;2023-07-29T14:46:11;3.67;;;1.22;;
29422;SDS011;16399;51.686;8.684;2023-07-29T14:49:13;11.30;;;1.27;;
29422;SDS011;16399;51.686;8.684;2023-07-29T14:52:16;2.95;;;1.15;;
29422;SDS011;16399;51.686;8.684;2023-07-29T14:55:18;3.17;;;1.00;;
29422;SDS011;16399;51.686;8.684;2023-07-29T14:58:21;3.95;;;1.17;;
29422;SDS011;16399;51.686;8.684;2023-07-29T15:01:25;5.90;;;1.10;;
29422;SDS011;16399;51.686;8.684;2023-07-29T15:04:27;3.58;;;1.20;;
29422;SDS011;16399;51.686;8.684;2023-07-29T15:07:29;1.82;;;0.90;;
29422;SDS011;16399;51.686;8.684;2023-07-29T15:10:31;3.15;;;1.20;;
29422;SDS011;16399;51.686;8.684;2023-07-29T15:13:34;2.72;;;1.30;;
29422;SDS011;16399;51.686;8.684;2023-07-29T15:16:36;3.90;;;1.42;;
29422;SDS011;16399;51.686;8.684;2023-07-29T15:19:39;2.40;;;1.30;;
29422;SDS011;16399;51.686;8.684;2023-07-29T15:22:42;8.10;;;1.20;;
29422;SDS011;16399;51.686;8.684;2023-07-29T15:25:45;6.80;;;1.30;;
29422;SDS011;16399;51.686;8.684;2023-07-29T15:28:47;2.50;;;1.20;;
29422;SDS011;16399;51.686;8.684;2023-07-29T15:31:49;2.50;;;1.20;;
29422;SDS011;16399;51.686;8.684;2023-07-29T15:34:51;6.58;;;1.42;;
29422;SDS011;16399;51.686;8.684;2023-07-29T15:37:54;2.98;;;1.27;;
29422;SDS011;16399;51.686;8.684;2023-07-29T15:40:56;2.85;;;1.20;;
29422;SDS011;16399;51.686;8.684;2023-07-29T15:43:58;5.72;;;1.70;;
29422;SDS011;16399;51.686;8.684;2023-07-29T15:47:01;7.22;;;1.80;;
29422;SDS011;16399;51.686;8.684;2023-07-29T15:50:03;4.20;;;1.60;;
29422;SDS011;16399;51.686;8.684;2023-07-29T15:53:06;2.65;;;1.50;;
29422;SDS011;16399;51.686;8.684;2023-07-29T15:56:09;1.87;;;1.05;;
29422;SDS011;16399;51.686;8.684;2023-07-29T15:59:11;2.75;;;1.00;;
29422;SDS011;16399;51.686;8.684;2023-07-29T16:02:13;3.27;;;1.00;;
29422;SDS011;16399;51.686;8.684;2023-07-29T16:05:16;1.98;;;0.80;;
29422;SDS011;16399;51.686;8.684;2023-07-29T16:08:18;5.03;;;1.20;;
29422;SDS011;16399;51.686;8.684;2023-07-29T16:11:20;2.95;;;0.95;;
29422;SDS011;16399;51.686;8.684;2023-07-29T16:14:22;3.83;;;1.20;;
29422;SDS011;16399;51.686;8.684;2023-07-29T16:17:25;3.00;;;1.05;;
29422;SDS011;16399;51.686;8.684;2023-07-29T16:20:27;2.42;;;0.90;;
29422;SDS011;16399;51.686;8.684;2023-07-29T16:23:32;4.53;;;1.40;;
29422;SDS011;16399;51.686;8.684;2023-07-29T16:26:35;2.98;;;1.10;;
29422;SDS011;16399;51.686;8.684;2023-07-29T16:29:37;4.08;;;1.12;;
29422;SDS011;16399;51.686;8.684;2023-07-29T16:32:40;3.12;;;1.10;;
29422;SDS011;16399;51.686;8.684;2023-07-29T16:35:42;5.33;;;1.25;;
29422;SDS011;16399;51.686;8.684;2023-07-29T16:38:44;4.62;;;1.35;;
29422;SDS011;16399;51.686;8.684;2023-07-29T16:41:46;4.78;;;1.25;;
29422;SDS011;16399;51.686;8.684;2023-07-29T16:44:49;3.50;;;1.30;;
29422;SDS011;16399;51.686;8.684;2023-07-29T16:47:51;4.10;;;1.10;;
29422;SDS011;16399;51.686;8.684;2023-07-29T16:50:53;5.90;;;1.20;;
29422;SDS011;16399;51.686;8.684;2023-07-29T16:53:56;2.98;;;1.30;;
29422;SDS011;16399;51.686;8.684;2023-07-29T16:56:58;4.00;;;1.20;;
29422;SDS011;16399;51.686;8.684;2023-07-29T17:00:00;7.10;;;1.30;;
29422;SDS011;16399;51.686;8.684;2023-07-29T17:03:03;3.62;;;1.72;;
29422;SDS011;16399;51.686;8.684;2023-07-29T17:06:06;3.65;;;1.55;;
29422;SDS011;16399;51.686;8.684;2023-07-29T17:09:08;2.80;;;1.37;;
29422;SDS011;16399;51.686;8.684;2023-07-29T17:12:11;3.12;;;1.42;;
29422;SDS011;16399;51.686;8.684;2023-07-29T17:15:13;3.12;;;1.60;;
29422;SDS011;16399;51.686;8.684;2023-07-29T17:18:16;2.37;;;1.00;;
29422;SDS011;16399;51.686;8.684;2023-07-29T17:21:18;3.70;;;1.30;;
29422;SDS011;16399;51.686;8.684;2023-07-29T17:24:20;3.27;;;1.40;;
29422;SDS011;16399;51.686;8.684;2023-07-29T17:27:23;2.10;;;1.20;;
29422;SDS011;16399;51.686;8.684;2023-07-29T17:30:25;2.15;;;1.20;;
29422;SDS011;16399;51.686;8.684;2023-07-29T17:33:28;2.80;;;1.30;;
29422;SDS011;16399;51.686;8.684;2023-07-29T17:36:31;4.60;;;1.27;;
29422;SDS011;16399;51.686;8.684;2023-07-29T17:39:33;4.03;;;1.20;;
29422;SDS011;16399;51.686;8.684;2023-07-29T17:42:37;2.45;;;1.30;;
29422;SDS011;16399;51.686;8.684;2023-07-29T17:45:40;5.85;;;1.37;;
29422;SDS011;16399;51.686;8.684;2023-07-29T17:48:44;2.25;;;1.02;;
29422;SDS011;16399;51.686;8.684;2023-07-29T17:51:47;2.20;;;0.90;;
29422;SDS011;16399;51.686;8.684;2023-07-29T17:54:50;1.52;;;0.90;;
29422;SDS011;16399;51.686;8.684;2023-07-29T17:57:53;2.37;;;0.90;;
29422;SDS011;16399;51.686;8.684;2023-07-29T18:01:00;1.57;;;0.80;;
29422;SDS011;16399;51.686;8.684;2023-07-29T18:03:59;3.90;;;0.77;;
29422;SDS011;16399;51.686;8.684;2023-07-29T18:07:01;2.47;;;0.93;;
29422;SDS011;16399;51.686;8.684;2023-07-29T18:10:04;1.75;;;0.93;;
29422;SDS011;16399;51.686;8.684;2023-07-29T18:13:07;1.72;;;0.90;;
29422;SDS011;16399;51.686;8.684;2023-07-29T18:16:09;1.72;;;0.95;;
29422;SDS011;16399;51.686;8.684;2023-07-29T18:19:13;2.72;;;1.30;;
29422;SDS011;16399;51.686;8.684;2023-07-29T18:22:15;2.02;;;1.20;;
29422;SDS011;16399;51.686;8.684;2023-07-29T18:25:17;2.62;;;1.00;;
29422;SDS011;16399;51.686;8.684;2023-07-29T18:28:20;2.52;;;0.90;;
29422;SDS011;16399;51.686;8.684;2023-07-29T18:31:22;4.40;;;0.90;;